sensor_id;sensor_type;location;lat;lon;timestamp;pressure;altitude;pressure_sealevel;temperature;humidity
62510;BME280;48558;48.242;11.654;2022-09-28T00:01:35;94830.63;;;8.70;100.00
62510;BME280;48558;48.242;11.654;2022-09-28T00:05:48;94817.53;;;8.64;100.00
62510;BME280;48558;48.242;11.654;2022-09-28T00:10:00;94809.34;;;8.70;100.00
62510;BME280;48558;48.242;11.654;2022-09-28T00:14:12;94809.19;;;8.79;100.00
62510;BME280;48558;48.242;11.654;2022-09-28T00:18:25;94803.44;;;8.83;100.00
62510;BME280;48558;48.242;11.654;2022-09-28T00:22:38;94805.22;;;8.86;100.00
62510;BME280;48558;48.242;11.654;2022-09-28T00:26:53;94794.47;;;8.88;100.00
62510;BME280;48558;48.242;11.654;2022-09-28T00:31:05;94784.44;;;8.85;100.00
62510;BME280;48558;48.242;11.654;2022-09-28T00:35:18;94774.50;;;8.93;100.00
62510;BME280;48558;48.242;11.654;2022-09-28T00:39:30;94758.22;;;8.95;100.00
62510;BME280;48558;48.242;11.654;2022-09-28T00:43:43;94754.47;;;8.92;100.00
62510;BME280;48558;48.242;11.654;2022-09-28T00:47:56;94740.38;;;8.85;100.00
62510;BME280;48558;48.242;11.654;2022-09-28T00:52:14;94737.13;;;8.86;100.00
62510;BME280;48558;48.242;11.654;2022-09-28T00:56:29;94731.63;;;8.86;100.00
62510;BME280;48558;48.242;11.654;2022-09-28T01:00:43;94719.88;;;8.91;100.00
62510;BME280;48558;48.242;11.654;2022-09-28T01:04:58;94719.16;;;8.96;100.00
62510;BME280;48558;48.242;11.654;2022-09-28T01:09:12;94712.19;;;9.01;100.00
62510;BME280;48558;48.242;11.654;2022-09-28T01:13:25;94718.69;;;8.98;100.00
62510;BME280;48558;48.242;11.654;2022-09-28T01:18:02;94711.50;;;8.75;100.00
62510;BME280;48558;48.242;11.654;2022-09-28T01:31:40;94675.00;;;8.80;100.00
62510;BME280;48558;48.242;11.654;2022-09-28T01:36:24;94674.00;;;8.83;100.00
62510;BME280;48558;48.242;11.654;2022-09-28T01:40:38;94672.28;;;8.85;100.00
62510;BME280;48558;48.242;11.654;2022-09-28T01:44:55;94659.84;;;8.95;100.00
62510;BME280;48558;48.242;11.654;2022-09-28T01:49:19;94638.47;;;8.85;100.00
62510;BME280;48558;48.242;11.654;2022-09-28T01:53:38;94639.53;;;8.98;100.00
62510;BME280;48558;48.242;11.654;2022-09-28T01:58:00;94628.00;;;8.89;100.00
62510;BME280;48558;48.242;11.654;2022-09-28T02:02:18;94615.91;;;8.81;100.00
62510;BME280;48558;48.242;11.654;2022-09-28T02:06:37;94596.91;;;8.83;100.00
62510;BME280;48558;48.242;11.654;2022-09-28T02:11:00;94585.13;;;8.82;100.00
62510;BME280;48558;48.242;11.654;2022-09-28T02:15:23;94571.34;;;8.82;100.00
62510;BME280;48558;48.242;11.654;2022-09-28T02:19:38;94570.06;;;8.72;100.00
62510;BME280;48558;48.242;11.654;2022-09-28T02:24:00;94558.34;;;8.83;100.00
62510;BME280;48558;48.242;11.654;2022-09-28T02:28:14;94558.53;;;8.74;100.00
62510;BME280;48558;48.242;11.654;2022-09-28T02:32:27;94551.03;;;8.74;100.00
62510;BME280;48558;48.242;11.654;2022-09-28T02:36:42;94536.97;;;8.61;100.00
62510;BME280;48558;48.242;11.654;2022-09-28T02:46:03;94528.59;;;8.44;100.00
62510;BME280;48558;48.242;11.654;2022-09-28T02:50:38;94522.41;;;8.18;100.00
62510;BME280;48558;48.242;11.654;2022-09-28T02:59:42;94511.97;;;7.91;100.00
62510;BME280;48558;48.242;11.654;2022-09-28T03:04:09;94502.97;;;7.96;100.00
62510;BME280;48558;48.242;11.654;2022-09-28T03:08:31;94496.69;;;7.90;100.00
62510;BME280;48558;48.242;11.654;2022-09-28T03:12:46;94484.03;;;7.98;100.00
62510;BME280;48558;48.242;11.654;2022-09-28T03:17:00;94479.81;;;8.08;100.00
62510;BME280;48558;48.242;11.654;2022-09-28T03:21:13;94474.63;;;8.16;100.00
62510;BME280;48558;48.242;11.654;2022-09-28T03:25:26;94478.50;;;8.29;100.00
62510;BME280;48558;48.242;11.654;2022-09-28T03:29:39;94479.47;;;8.26;100.00
62510;BME280;48558;48.242;11.654;2022-09-28T03:33:51;94482.03;;;8.35;100.00
62510;BME280;48558;48.242;11.654;2022-09-28T03:38:04;94468.00;;;8.33;100.00
62510;BME280;48558;48.242;11.654;2022-09-28T03:42:17;94459.25;;;8.35;100.00
62510;BME280;48558;48.242;11.654;2022-09-28T03:46:29;94454.00;;;8.31;100.00
62510;BME280;48558;48.242;11.654;2022-09-28T03:50:43;94454.28;;;8.44;100.00
62510;BME280;48558;48.242;11.654;2022-09-28T03:54:56;94448.84;;;8.55;100.00
62510;BME280;48558;48.242;11.654;2022-09-28T03:59:08;94443.13;;;8.64;100.00
62510;BME280;48558;48.242;11.654;2022-09-28T04:03:21;94435.38;;;8.63;100.00
62510;BME280;48558;48.242;11.654;2022-09-28T04:07:33;94438.16;;;8.74;100.00
62510;BME280;48558;48.242;11.654;2022-09-28T04:11:46;94429.41;;;8.81;100.00
62510;BME280;48558;48.242;11.654;2022-09-28T04:16:15;94426.16;;;8.83;100.00
62510;BME280;48558;48.242;11.654;2022-09-28T04:20:29;94427.16;;;8.80;100.00
62510;BME280;48558;48.242;11.654;2022-09-28T04:24:41;94421.19;;;8.92;100.00
62510;BME280;48558;48.242;11.654;2022-09-28T04:28:54;94425.19;;;8.91;100.00
62510;BME280;48558;48.242;11.654;2022-09-28T04:33:25;94412.16;;;8.92;100.00
62510;BME280;48558;48.242;11.654;2022-09-28T04:37:37;94418.69;;;8.89;100.00
62510;BME280;48558;48.242;11.654;2022-09-28T04:41:50;94420.94;;;8.96;100.00
62510;BME280;48558;48.242;11.654;2022-09-28T04:46:03;94432.72;;;8.96;100.00
62510;BME280;48558;48.242;11.654;2022-09-28T04:50:19;94423.97;;;8.98;100.00
62510;BME280;48558;48.242;11.654;2022-09-28T04:54:32;94423.66;;;8.85;100.00
62510;BME280;48558;48.242;11.654;2022-09-28T04:58:44;94426.16;;;8.83;100.00
62510;BME280;48558;48.242;11.654;2022-09-28T05:03:03;94429.94;;;8.91;100.00
62510;BME280;48558;48.242;11.654;2022-09-28T05:07:16;94433.91;;;8.79;100.00
62510;BME280;48558;48.242;11.654;2022-09-28T05:11:28;94438.63;;;8.67;100.00
62510;BME280;48558;48.242;11.654;2022-09-28T05:15:41;94435.91;;;8.73;100.00
62510;BME280;48558;48.242;11.654;2022-09-28T05:19:53;94444.41;;;8.75;100.00
62510;BME280;48558;48.242;11.654;2022-09-28T05:24:06;94440.41;;;8.70;100.00
62510;BME280;48558;48.242;11.654;2022-09-28T05:28:22;94424.09;;;8.66;100.00
62510;BME280;48558;48.242;11.654;2022-09-28T05:32:42;94421.63;;;8.74;100.00
62510;BME280;48558;48.242;11.654;2022-09-28T05:36:55;94419.59;;;8.63;100.00
62510;BME280;48558;48.242;11.654;2022-09-28T05:41:07;94405.09;;;8.63;100.00
62510;BME280;48558;48.242;11.654;2022-09-28T05:45:21;94384.31;;;8.73;100.00
62510;BME280;48558;48.242;11.654;2022-09-28T05:49:34;94376.06;;;8.68;100.00
62510;BME280;48558;48.242;11.654;2022-09-28T05:53:46;94361.78;;;8.69;100.00
62510;BME280;48558;48.242;11.654;2022-09-28T05:58:00;94363.53;;;8.66;100.00
62510;BME280;48558;48.242;11.654;2022-09-28T06:02:13;94363.31;;;8.70;100.00
62510;BME280;48558;48.242;11.654;2022-09-28T06:06:25;94356.31;;;8.80;100.00
62510;BME280;48558;48.242;11.654;2022-09-28T06:10:38;94362.81;;;8.83;100.00
62510;BME280;48558;48.242;11.654;2022-09-28T06:14:51;94367.59;;;8.88;100.00
62510;BME280;48558;48.242;11.654;2022-09-28T06:19:03;94355.06;;;8.87;100.00
62510;BME280;48558;48.242;11.654;2022-09-28T06:23:15;94350.81;;;8.91;100.00
62510;BME280;48558;48.242;11.654;2022-09-28T06:27:28;94363.59;;;8.83;100.00
62510;BME280;48558;48.242;11.654;2022-09-28T06:31:40;94354.59;;;8.88;100.00
62510;BME280;48558;48.242;11.654;2022-09-28T06:35:53;94348.84;;;9.08;100.00
62510;BME280;48558;48.242;11.654;2022-09-28T06:40:06;94334.81;;;9.01;100.00
62510;BME280;48558;48.242;11.654;2022-09-28T06:44:18;94350.34;;;9.04;100.00
62510;BME280;48558;48.242;11.654;2022-09-28T06:48:31;94357.09;;;8.97;100.00
62510;BME280;48558;48.242;11.654;2022-09-28T06:52:44;94349.34;;;9.01;100.00
62510;BME280;48558;48.242;11.654;2022-09-28T06:56:57;94349.84;;;9.11;100.00
62510;BME280;48558;48.242;11.654;2022-09-28T07:01:09;94348.31;;;9.43;100.00
62510;BME280;48558;48.242;11.654;2022-09-28T07:05:23;94352.84;;;9.35;100.00
62510;BME280;48558;48.242;11.654;2022-09-28T07:09:38;94348.59;;;9.39;100.00
62510;BME280;48558;48.242;11.654;2022-09-28T07:13:58;94369.13;;;9.44;100.00
62510;BME280;48558;48.242;11.654;2022-09-28T07:18:10;94367.88;;;9.45;100.00
62510;BME280;48558;48.242;11.654;2022-09-28T07:22:23;94372.38;;;9.54;100.00
62510;BME280;48558;48.242;11.654;2022-09-28T07:26:51;94372.13;;;9.57;100.00
62510;BME280;48558;48.242;11.654;2022-09-28T07:31:04;94378.16;;;9.72;100.00
62510;BME280;48558;48.242;11.654;2022-09-28T07:35:16;94363.81;;;9.85;100.00
62510;BME280;48558;48.242;11.654;2022-09-28T07:39:29;94376.09;;;9.95;100.00
62510;BME280;48558;48.242;11.654;2022-09-28T07:43:42;94382.13;;;9.82;100.00
62510;BME280;48558;48.242;11.654;2022-09-28T07:47:54;94396.66;;;9.94;100.00
62510;BME280;48558;48.242;11.654;2022-09-28T07:52:07;94393.13;;;10.04;100.00
62510;BME280;48558;48.242;11.654;2022-09-28T07:56:20;94391.88;;;10.22;100.00
62510;BME280;48558;48.242;11.654;2022-09-28T08:00:32;94395.41;;;9.95;100.00
62510;BME280;48558;48.242;11.654;2022-09-28T08:04:46;94389.34;;;10.02;100.00
62510;BME280;48558;48.242;11.654;2022-09-28T08:08:59;94404.16;;;10.16;100.00
62510;BME280;48558;48.242;11.654;2022-09-28T08:13:13;94404.66;;;10.20;100.00
62510;BME280;48558;48.242;11.654;2022-09-28T08:17:27;94402.91;;;10.11;100.00
62510;BME280;48558;48.242;11.654;2022-09-28T08:21:39;94403.38;;;10.26;100.00
62510;BME280;48558;48.242;11.654;2022-09-28T08:25:58;94414.13;;;10.41;100.00
62510;BME280;48558;48.242;11.654;2022-09-28T08:30:11;94426.16;;;10.49;100.00
62510;BME280;48558;48.242;11.654;2022-09-28T08:34:23;94415.16;;;10.38;100.00
62510;BME280;48558;48.242;11.654;2022-09-28T08:38:36;94419.88;;;10.43;100.00
62510;BME280;48558;48.242;11.654;2022-09-28T08:42:52;94422.53;;;10.70;100.00
62510;BME280;48558;48.242;11.654;2022-09-28T08:47:13;94411.91;;;10.91;100.00
62510;BME280;48558;48.242;11.654;2022-09-28T08:51:54;94429.56;;;11.23;100.00
62510;BME280;48558;48.242;11.654;2022-09-28T08:56:20;94426.47;;;10.86;100.00
62510;BME280;48558;48.242;11.654;2022-09-28T09:00:46;94439.94;;;11.06;100.00
62510;BME280;48558;48.242;11.654;2022-09-28T09:05:03;94507.41;;;10.70;100.00
62510;BME280;48558;48.242;11.654;2022-09-28T09:09:38;94532.84;;;10.07;100.00
62510;BME280;48558;48.242;11.654;2022-09-28T09:18:35;94531.00;;;9.44;100.00
62510;BME280;48558;48.242;11.654;2022-09-28T09:23:04;94545.75;;;9.29;100.00
62510;BME280;48558;48.242;11.654;2022-09-28T09:49:16;94536.88;;;10.12;100.00
62510;BME280;48558;48.242;11.654;2022-09-28T09:53:40;94543.88;;;10.46;100.00
62510;BME280;48558;48.242;11.654;2022-09-28T10:02:26;94555.19;;;10.15;100.00
62510;BME280;48558;48.242;11.654;2022-09-28T10:06:40;94556.19;;;10.23;100.00
62510;BME280;48558;48.242;11.654;2022-09-28T10:11:15;94554.38;;;10.70;100.00
62510;BME280;48558;48.242;11.654;2022-09-28T10:15:31;94556.50;;;11.16;100.00
62510;BME280;48558;48.242;11.654;2022-09-28T10:19:45;94550.13;;;11.37;100.00
62510;BME280;48558;48.242;11.654;2022-09-28T10:23:59;94552.91;;;11.84;100.00
62510;BME280;48558;48.242;11.654;2022-09-28T10:28:18;94563.81;;;11.71;100.00
62510;BME280;48558;48.242;11.654;2022-09-28T10:32:39;94568.09;;;11.66;100.00
62510;BME280;48558;48.242;11.654;2022-09-28T10:36:57;94568.81;;;12.13;100.00
62510;BME280;48558;48.242;11.654;2022-09-28T10:41:13;94576.81;;;11.29;100.00
62510;BME280;48558;48.242;11.654;2022-09-28T10:45:33;94577.34;;;11.80;100.00
62510;BME280;48558;48.242;11.654;2022-09-28T10:49:47;94584.47;;;11.59;100.00
62510;BME280;48558;48.242;11.654;2022-09-28T10:54:01;94572.81;;;11.77;100.00
62510;BME280;48558;48.242;11.654;2022-09-28T10:58:37;94581.84;;;12.18;100.00
62510;BME280;48558;48.242;11.654;2022-09-28T11:02:51;94585.56;;;12.26;100.00
62510;BME280;48558;48.242;11.654;2022-09-28T11:07:14;94588.19;;;12.48;100.00
62510;BME280;48558;48.242;11.654;2022-09-28T11:11:28;94588.19;;;11.67;100.00
62510;BME280;48558;48.242;11.654;2022-09-28T11:15:42;94589.28;;;12.34;100.00
62510;BME280;48558;48.242;11.654;2022-09-28T11:19:58;94583.44;;;11.67;100.00
62510;BME280;48558;48.242;11.654;2022-09-28T11:28:35;94593.50;;;11.59;100.00
62510;BME280;48558;48.242;11.654;2022-09-28T11:32:49;94601.69;;;11.35;100.00
62510;BME280;48558;48.242;11.654;2022-09-28T11:46:04;94596.16;;;12.22;100.00
62510;BME280;48558;48.242;11.654;2022-09-28T11:50:21;94586.34;;;12.80;100.00
62510;BME280;48558;48.242;11.654;2022-09-28T11:54:51;94591.78;;;13.40;100.00
62510;BME280;48558;48.242;11.654;2022-09-28T11:59:25;94597.47;;;14.09;100.00
62510;BME280;48558;48.242;11.654;2022-09-28T12:03:43;94625.53;;;13.68;100.00
62510;BME280;48558;48.242;11.654;2022-09-28T12:08:05;94621.59;;;13.15;100.00
62510;BME280;48558;48.242;11.654;2022-09-28T12:12:23;94614.50;;;12.90;100.00
62510;BME280;48558;48.242;11.654;2022-09-28T12:17:04;94618.63;;;13.08;100.00
62510;BME280;48558;48.242;11.654;2022-09-28T12:21:43;94597.97;;;11.79;100.00
62510;BME280;48558;48.242;11.654;2022-09-28T12:26:01;94609.09;;;11.62;100.00
62510;BME280;48558;48.242;11.654;2022-09-28T12:30:20;94609.25;;;11.86;100.00
62510;BME280;48558;48.242;11.654;2022-09-28T12:34:33;94617.69;;;12.40;100.00
62510;BME280;48558;48.242;11.654;2022-09-28T12:38:56;94624.88;;;12.19;100.00
62510;BME280;48558;48.242;11.654;2022-09-28T12:43:38;94616.34;;;11.65;100.00
62510;BME280;48558;48.242;11.654;2022-09-28T12:52:35;94614.78;;;11.23;100.00
62510;BME280;48558;48.242;11.654;2022-09-28T13:19:25;94636.13;;;11.23;100.00
62510;BME280;48558;48.242;11.654;2022-09-28T13:23:43;94631.69;;;11.03;100.00
62510;BME280;48558;48.242;11.654;2022-09-28T13:28:00;94617.50;;;11.29;100.00
62510;BME280;48558;48.242;11.654;2022-09-28T13:32:14;94623.91;;;10.85;100.00
62510;BME280;48558;48.242;11.654;2022-09-28T13:49:50;94611.72;;;11.90;100.00
62510;BME280;48558;48.242;11.654;2022-09-28T14:03:24;94624.63;;;11.08;100.00
62510;BME280;48558;48.242;11.654;2022-09-28T14:16:23;94622.94;;;10.60;100.00
62510;BME280;48558;48.242;11.654;2022-09-28T14:20:49;94620.38;;;11.01;100.00
62510;BME280;48558;48.242;11.654;2022-09-28T14:25:11;94620.38;;;11.01;100.00
62510;BME280;48558;48.242;11.654;2022-09-28T14:29:28;94621.56;;;11.28;100.00
62510;BME280;48558;48.242;11.654;2022-09-28T14:33:52;94619.88;;;10.97;100.00
62510;BME280;48558;48.242;11.654;2022-09-28T14:38:13;94615.91;;;10.76;100.00
62510;BME280;48558;48.242;11.654;2022-09-28T14:48:03;94621.38;;;10.98;100.00
62510;BME280;48558;48.242;11.654;2022-09-28T14:52:17;94622.66;;;10.92;100.00
62510;BME280;48558;48.242;11.654;2022-09-28T15:01:13;94625.19;;;10.67;100.00
62510;BME280;48558;48.242;11.654;2022-09-28T15:05:40;94625.44;;;10.53;100.00
62510;BME280;48558;48.242;11.654;2022-09-28T15:09:55;94624.44;;;10.78;100.00
62510;BME280;48558;48.242;11.654;2022-09-28T15:14:09;94613.66;;;10.58;100.00
62510;BME280;48558;48.242;11.654;2022-09-28T15:23:35;94617.16;;;10.75;100.00
62510;BME280;48558;48.242;11.654;2022-09-28T15:28:12;94616.88;;;10.84;100.00
62510;BME280;48558;48.242;11.654;2022-09-28T15:32:28;94624.19;;;10.65;100.00
62510;BME280;48558;48.242;11.654;2022-09-28T15:36:43;94636.25;;;10.62;100.00
62510;BME280;48558;48.242;11.654;2022-09-28T15:41:02;94646.28;;;10.54;100.00
62510;BME280;48558;48.242;11.654;2022-09-28T15:45:36;94638.75;;;10.27;100.00
62510;BME280;48558;48.242;11.654;2022-09-28T15:50:05;94649.75;;;10.16;100.00
62510;BME280;48558;48.242;11.654;2022-09-28T15:54:30;94653.25;;;9.99;100.00
62510;BME280;48558;48.242;11.654;2022-09-28T16:03:27;94662.00;;;9.92;100.00
62510;BME280;48558;48.242;11.654;2022-09-28T16:07:40;94661.25;;;9.97;100.00
62510;BME280;48558;48.242;11.654;2022-09-28T16:11:53;94666.75;;;9.97;100.00
62510;BME280;48558;48.242;11.654;2022-09-28T16:16:05;94669.50;;;9.86;100.00
62510;BME280;48558;48.242;11.654;2022-09-28T16:20:33;94676.53;;;9.87;100.00
62510;BME280;48558;48.242;11.654;2022-09-28T16:24:56;94679.28;;;9.87;100.00
62510;BME280;48558;48.242;11.654;2022-09-28T16:29:24;94679.50;;;9.84;100.00
62510;BME280;48558;48.242;11.654;2022-09-28T16:33:55;94673.75;;;9.76;100.00
62510;BME280;48558;48.242;11.654;2022-09-28T16:38:11;94677.41;;;9.51;100.00
62510;BME280;48558;48.242;11.654;2022-09-28T16:42:26;94670.09;;;9.48;100.00
62510;BME280;48558;48.242;11.654;2022-09-28T16:46:38;94663.63;;;9.57;100.00
62510;BME280;48558;48.242;11.654;2022-09-28T16:50:51;94656.38;;;9.59;100.00
62510;BME280;48558;48.242;11.654;2022-09-28T16:55:03;94660.56;;;9.38;100.00
62510;BME280;48558;48.242;11.654;2022-09-28T16:59:46;94656.03;;;9.35;100.00
62510;BME280;48558;48.242;11.654;2022-09-28T17:04:00;94656.00;;;9.29;100.00
62510;BME280;48558;48.242;11.654;2022-09-28T17:08:14;94668.78;;;9.27;100.00
62510;BME280;48558;48.242;11.654;2022-09-28T17:12:28;94660.72;;;9.18;100.00
62510;BME280;48558;48.242;11.654;2022-09-28T17:16:41;94667.66;;;9.08;100.00
62510;BME280;48558;48.242;11.654;2022-09-28T17:21:16;94668.19;;;9.12;100.00
62510;BME280;48558;48.242;11.654;2022-09-28T17:25:29;94674.34;;;8.96;100.00
62510;BME280;48558;48.242;11.654;2022-09-28T17:29:42;94677.63;;;9.00;100.00
62510;BME280;48558;48.242;11.654;2022-09-28T17:33:54;94674.88;;;9.00;100.00
62510;BME280;48558;48.242;11.654;2022-09-28T17:38:10;94682.34;;;8.94;100.00
62510;BME280;48558;48.242;11.654;2022-09-28T17:42:23;94686.63;;;9.00;100.00
62510;BME280;48558;48.242;11.654;2022-09-28T17:46:37;94678.38;;;9.00;100.00
62510;BME280;48558;48.242;11.654;2022-09-28T17:50:50;94682.38;;;8.99;100.00
62510;BME280;48558;48.242;11.654;2022-09-28T17:55:03;94685.28;;;8.85;100.00
62510;BME280;48558;48.242;11.654;2022-09-28T17:59:17;94684.38;;;8.99;100.00
62510;BME280;48558;48.242;11.654;2022-09-28T18:03:31;94683.53;;;8.82;100.00
62510;BME280;48558;48.242;11.654;2022-09-28T18:07:44;94676.25;;;8.79;100.00
62510;BME280;48558;48.242;11.654;2022-09-28T18:11:59;94684.56;;;8.90;100.00
62510;BME280;48558;48.242;11.654;2022-09-28T18:16:15;94685.47;;;8.76;100.00
62510;BME280;48558;48.242;11.654;2022-09-28T18:20:28;94690.34;;;8.92;100.00
62510;BME280;48558;48.242;11.654;2022-09-28T18:24:41;94696.31;;;8.85;100.00
62510;BME280;48558;48.242;11.654;2022-09-28T18:28:54;94701.81;;;8.85;100.00
62510;BME280;48558;48.242;11.654;2022-09-28T18:33:07;94710.16;;;8.96;100.00
62510;BME280;48558;48.242;11.654;2022-09-28T18:37:22;94709.09;;;8.88;100.00
62510;BME280;48558;48.242;11.654;2022-09-28T18:41:34;94716.56;;;8.82;100.00
62510;BME280;48558;48.242;11.654;2022-09-28T18:45:47;94725.63;;;8.88;100.00
62510;BME280;48558;48.242;11.654;2022-09-28T18:50:00;94735.78;;;8.76;100.00
62510;BME280;48558;48.242;11.654;2022-09-28T18:54:13;94738.09;;;8.83;100.00
62510;BME280;48558;48.242;11.654;2022-09-28T18:58:25;94738.16;;;8.89;100.00
62510;BME280;48558;48.242;11.654;2022-09-28T19:02:39;94754.13;;;8.85;100.00
62510;BME280;48558;48.242;11.654;2022-09-28T19:06:52;94764.63;;;8.81;100.00
62510;BME280;48558;48.242;11.654;2022-09-28T19:11:09;94762.91;;;8.83;100.00
62510;BME280;48558;48.242;11.654;2022-09-28T19:15:22;94763.84;;;8.80;100.00
62510;BME280;48558;48.242;11.654;2022-09-28T19:19:37;94761.38;;;8.82;100.00
62510;BME280;48558;48.242;11.654;2022-09-28T19:23:49;94769.94;;;8.84;100.00
62510;BME280;48558;48.242;11.654;2022-09-28T19:28:03;94762.94;;;8.89;100.00
62510;BME280;48558;48.242;11.654;2022-09-28T19:32:15;94766.44;;;8.89;100.00
62510;BME280;48558;48.242;11.654;2022-09-28T19:36:28;94779.00;;;8.96;100.00
62510;BME280;48558;48.242;11.654;2022-09-28T19:40:40;94788.03;;;8.96;100.00
62510;BME280;48558;48.242;11.654;2022-09-28T19:44:53;94784.50;;;8.90;100.00
62510;BME280;48558;48.242;11.654;2022-09-28T19:49:11;94792.06;;;8.95;100.00
62510;BME280;48558;48.242;11.654;2022-09-28T19:53:34;94802.97;;;8.84;100.00
62510;BME280;48558;48.242;11.654;2022-09-28T19:57:50;94801.28;;;8.92;100.00
62510;BME280;48558;48.242;11.654;2022-09-28T20:02:05;94801.09;;;9.01;100.00
62510;BME280;48558;48.242;11.654;2022-09-28T20:06:18;94812.25;;;8.87;100.00
62510;BME280;48558;48.242;11.654;2022-09-28T20:10:30;94832.00;;;8.85;100.00
62510;BME280;48558;48.242;11.654;2022-09-28T20:14:43;94822.41;;;8.75;100.00
62510;BME280;48558;48.242;11.654;2022-09-28T20:18:57;94830.72;;;8.81;100.00
62510;BME280;48558;48.242;11.654;2022-09-28T20:23:12;94833.56;;;8.92;100.00
62510;BME280;48558;48.242;11.654;2022-09-28T20:27:24;94831.97;;;8.80;100.00
62510;BME280;48558;48.242;11.654;2022-09-28T20:31:38;94836.66;;;8.74;100.00
62510;BME280;48558;48.242;11.654;2022-09-28T20:35:51;94832.72;;;8.80;100.00
62510;BME280;48558;48.242;11.654;2022-09-28T20:40:04;94840.00;;;8.83;100.00
62510;BME280;48558;48.242;11.654;2022-09-28T20:44:16;94837.50;;;8.59;100.00
62510;BME280;48558;48.242;11.654;2022-09-28T20:48:30;94833.44;;;8.75;100.00
62510;BME280;48558;48.242;11.654;2022-09-28T20:52:42;94825.09;;;8.70;100.00
62510;BME280;48558;48.242;11.654;2022-09-28T20:56:55;94836.06;;;8.64;100.00
62510;BME280;48558;48.242;11.654;2022-09-28T21:01:12;94831.16;;;8.74;100.00
62510;BME280;48558;48.242;11.654;2022-09-28T21:05:28;94826.66;;;8.50;100.00
62510;BME280;48558;48.242;11.654;2022-09-28T21:09:42;94837.72;;;8.56;100.00
62510;BME280;48558;48.242;11.654;2022-09-28T21:13:57;94829.97;;;8.54;100.00
62510;BME280;48558;48.242;11.654;2022-09-28T21:18:10;94831.47;;;8.55;100.00
62510;BME280;48558;48.242;11.654;2022-09-28T21:22:22;94838.66;;;8.47;100.00
62510;BME280;48558;48.242;11.654;2022-09-28T21:26:35;94833.75;;;8.37;100.00
62510;BME280;48558;48.242;11.654;2022-09-28T21:30:50;94846.84;;;8.42;100.00
62510;BME280;48558;48.242;11.654;2022-09-28T21:35:02;94847.66;;;8.48;100.00
62510;BME280;48558;48.242;11.654;2022-09-28T21:39:16;94851.94;;;8.29;100.00
62510;BME280;48558;48.242;11.654;2022-09-28T21:43:29;94847.75;;;8.33;100.00
62510;BME280;48558;48.242;11.654;2022-09-28T21:47:42;94849.28;;;8.34;100.00
62510;BME280;48558;48.242;11.654;2022-09-28T21:51:58;94846.38;;;8.43;100.00
62510;BME280;48558;48.242;11.654;2022-09-28T21:56:11;94851.44;;;8.30;100.00
62510;BME280;48558;48.242;11.654;2022-09-28T22:00:24;94848.00;;;8.35;100.00
62510;BME280;48558;48.242;11.654;2022-09-28T22:04:36;94850.59;;;8.24;100.00
62510;BME280;48558;48.242;11.654;2022-09-28T22:08:49;94859.53;;;8.19;100.00
62510;BME280;48558;48.242;11.654;2022-09-28T22:13:02;94852.53;;;8.18;100.00
62510;BME280;48558;48.242;11.654;2022-09-28T22:17:14;94858.47;;;8.11;100.00
62510;BME280;48558;48.242;11.654;2022-09-28T22:21:29;94859.53;;;7.99;100.00
62510;BME280;48558;48.242;11.654;2022-09-28T22:25:43;94858.19;;;7.89;100.00
62510;BME280;48558;48.242;11.654;2022-09-28T22:29:55;94855.63;;;7.85;100.00
62510;BME280;48558;48.242;11.654;2022-09-28T22:34:08;94861.06;;;7.80;100.00
62510;BME280;48558;48.242;11.654;2022-09-28T22:38:22;94857.25;;;7.77;100.00
62510;BME280;48558;48.242;11.654;2022-09-28T22:42:35;94853.06;;;7.62;100.00
62510;BME280;48558;48.242;11.654;2022-09-28T22:46:49;94861.91;;;7.71;100.00
62510;BME280;48558;48.242;11.654;2022-09-28T22:51:04;94863.06;;;7.65;100.00
62510;BME280;48558;48.242;11.654;2022-09-28T22:55:17;94867.34;;;7.66;100.00
62510;BME280;48558;48.242;11.654;2022-09-28T22:59:29;94864.88;;;7.68;100.00
62510;BME280;48558;48.242;11.654;2022-09-28T23:03:42;94850.38;;;7.67;100.00
62510;BME280;48558;48.242;11.654;2022-09-28T23:07:56;94863.16;;;7.70;100.00
62510;BME280;48558;48.242;11.654;2022-09-28T23:12:08;94862.41;;;7.70;100.00
62510;BME280;48558;48.242;11.654;2022-09-28T23:16:21;94855.88;;;7.67;100.00
62510;BME280;48558;48.242;11.654;2022-09-28T23:20:37;94853.13;;;7.67;100.00
62510;BME280;48558;48.242;11.654;2022-09-28T23:24:50;94848.38;;;7.68;100.00
62510;BME280;48558;48.242;11.654;2022-09-28T23:29:03;94843.81;;;7.65;100.00
62510;BME280;48558;48.242;11.654;2022-09-28T23:33:16;94843.78;;;7.59;100.00
62510;BME280;48558;48.242;11.654;2022-09-28T23:37:29;94850.56;;;7.64;100.00
62510;BME280;48558;48.242;11.654;2022-09-28T23:41:42;94840.53;;;7.61;100.00
62510;BME280;48558;48.242;11.654;2022-09-28T23:45:54;94837.66;;;7.70;100.00
62510;BME280;48558;48.242;11.654;2022-09-28T23:50:07;94839.38;;;7.67;100.00
62510;BME280;48558;48.242;11.654;2022-09-28T23:54:20;94838.22;;;7.74;100.00
62510;BME280;48558;48.242;11.654;2022-09-28T23:58:33;94839.19;;;7.71;100.00
